Time;durP1;ratioP1;P1;durP2;ratioP2;P2;SDS_P1;SDS_P2;PMS_P1;PMS_P2;Temp;Humidity;BMP_temperature;BMP_pressure;BME280_temperature;BME280_humidity;BME280_pressure;Samples;Min_cycle;Max_cycle;Signal;HPM_P1;HPM_P2
2022/09/01 00:00:22;;;;;;;8.35;6.60;;;14.80;99.90;;;;;;2115092;28;20020;-70
2022/09/01 00:01:25;;;;;;;8.32;6.55;;;14.80;99.90;;;;;;2114280;28;20032;-70
2022/09/01 00:02:27;;;;;;;8.35;6.82;;;14.80;99.90;;;;;;2114012;28;20027;-70
2022/09/01 00:03:28;;;;;;;7.50;6.70;;;14.70;99.90;;;;;;2114900;28;20080;-70
2022/09/01 00:04:29;;;;;;;7.57;6.67;;;14.70;99.90;;;;;;2114804;28;20031;-70
2022/09/01 00:05:31;;;;;;;7.45;6.32;;;14.70;99.90;;;;;;2114893;28;20420;-70
2022/09/01 00:06:33;;;;;;;8.65;6.50;;;14.70;99.90;;;;;;2114834;28;20030;-70
2022/09/01 00:07:34;;;;;;;7.93;6.38;;;14.70;99.90;;;;;;2114909;28;20537;-70
2022/09/01 00:08:35;;;;;;;7.22;6.43;;;14.70;99.90;;;;;;2114592;28;20027;-70
2022/09/01 00:09:36;;;;;;;7.78;6.32;;;14.70;99.90;;;;;;2106178;28;20038;-70
2022/09/01 00:10:40;;;;;;;7.53;6.30;;;14.70;99.90;;;;;;2114401;28;20420;-70
2022/09/01 00:11:44;;;;;;;7.85;6.22;;;14.70;99.90;;;;;;2115315;28;20106;-71
2022/09/01 00:12:48;;;;;;;7.28;6.10;;;14.70;99.90;;;;;;2114926;28;20089;-70
2022/09/01 00:13:52;;;;;;;7.68;6.65;;;14.70;99.90;;;;;;2115263;28;20058;-70
2022/09/01 00:14:53;;;;;;;8.77;6.57;;;14.70;99.90;;;;;;2114978;28;20043;-70
2022/09/01 00:15:54;;;;;;;8.65;6.88;;;14.70;99.90;;;;;;2114720;28;20040;-71
2022/09/01 00:16:55;;;;;;;8.70;6.88;;;14.70;99.90;;;;;;2114875;28;20485;-70
2022/09/01 00:17:56;;;;;;;8.82;6.93;;;14.70;99.90;;;;;;2114573;28;20432;-70
2022/09/01 00:18:57;;;;;;;7.70;6.38;;;14.70;99.90;;;;;;2114760;28;20063;-70
2022/09/01 00:19:57;;;;;;;7.32;6.35;;;14.70;99.90;;;;;;2114446;28;20027;-70
2022/09/01 00:20:58;;;;;;;7.60;6.50;;;14.70;99.90;;;;;;2114113;28;20031;-70
2022/09/01 00:22:00;;;;;;;8.90;6.75;;;14.70;99.90;;;;;;2114340;28;20058;-70
2022/09/01 00:23:00;;;;;;;7.35;6.55;;;14.70;99.90;;;;;;2114946;28;20027;-70
2022/09/01 00:24:02;;;;;;;7.13;6.43;;;14.70;99.90;;;;;;2114839;28;20293;-70
2022/09/01 00:25:04;;;;;;;9.65;6.68;;;14.60;99.90;;;;;;2114608;28;20550;-70
2022/09/01 00:26:05;;;;;;;8.68;6.70;;;14.70;99.90;;;;;;2114060;28;20747;-70
2022/09/01 00:27:06;;;;;;;7.22;6.43;;;14.70;99.90;;;;;;2114030;28;20020;-70
2022/09/01 00:28:06;;;;;;;7.30;6.60;;;14.70;99.90;;;;;;2113901;28;20055;-70
2022/09/01 00:29:07;;;;;;;8.88;7.32;;;14.70;99.90;;;;;;2114183;28;20140;-70
2022/09/01 00:30:09;;;;;;;9.32;7.60;;;14.70;99.90;;;;;;2114683;28;20051;-70
2022/09/01 00:31:10;;;;;;;8.30;7.45;;;14.70;99.90;;;;;;2114787;28;20027;-70
2022/09/01 00:32:11;;;;;;;8.10;7.30;;;14.60;99.90;;;;;;2114458;28;20390;-70
2022/09/01 00:33:11;;;;;;;9.57;7.38;;;14.70;99.90;;;;;;2114055;28;20072;-70
2022/09/01 00:34:14;;;;;;;8.38;7.47;;;14.60;99.90;;;;;;2105627;28;20452;-69
2022/09/01 00:35:17;;;;;;;8.68;7.78;;;14.60;99.90;;;;;;2105768;28;20031;-69
2022/09/01 00:36:18;;;;;;;9.63;7.35;;;14.60;99.90;;;;;;2113898;28;20538;-69
2022/09/01 00:37:19;;;;;;;10.07;7.78;;;14.60;99.90;;;;;;2114602;28;20608;-69
2022/09/01 00:38:20;;;;;;;12.43;8.05;;;14.60;99.90;;;;;;2114718;28;20027;-69
2022/09/01 00:39:20;;;;;;;8.75;7.63;;;14.60;99.90;;;;;;2113872;28;20049;-69
2022/09/01 00:40:21;;;;;;;9.57;7.88;;;14.60;99.90;;;;;;2113720;28;20031;-69
2022/09/01 00:41:24;;;;;;;10.57;7.78;;;14.50;99.90;;;;;;2113937;28;20023;-69
2022/09/01 00:42:25;;;;;;;8.93;7.38;;;14.50;99.90;;;;;;2105304;28;20032;-69
2022/09/01 00:43:47;;;;;;;10.50;7.60;;;14.50;99.90;;;;;;2105284;28;20233;-70
2022/09/01 00:44:47;;;;;;;10.73;7.82;;;14.50;99.90;;;;;;2114083;28;20038;-69
2022/09/01 00:45:50;;;;;;;7.78;7.07;;;14.50;99.90;;;;;;2113827;28;20110;-69
2022/09/01 00:46:54;;;;;;;8.25;7.38;;;14.50;99.90;;;;;;2105850;28;20024;-69
2022/09/01 00:47:55;;;;;;;9.50;7.80;;;14.50;99.90;;;;;;2106044;28;20122;-70
2022/09/01 00:49:04;;;;;;;8.63;7.65;;;14.50;99.90;;;;;;2113752;28;20459;-69
2022/09/01 00:50:07;;;;;;;10.55;7.50;;;14.50;99.90;;;;;;2114008;28;20028;-69
2022/09/01 00:51:09;;;;;;;8.55;7.65;;;14.40;99.90;;;;;;2114068;28;20027;-68
2022/09/01 00:52:20;;;;;;;8.35;7.38;;;14.40;99.90;;;;;;2114297;28;20015;-69
2022/09/01 00:53:21;;;;;;;9.35;7.47;;;14.40;99.90;;;;;;2114535;28;20042;-69
2022/09/01 00:54:27;;;;;;;10.00;7.72;;;14.40;99.90;;;;;;2113879;28;20500;-69
2022/09/01 00:55:31;;;;;;;8.90;7.38;;;14.40;99.90;;;;;;2106290;28;20069;-69
2022/09/01 00:56:33;;;;;;;9.07;7.97;;;14.40;99.90;;;;;;2105453;28;20520;-69
2022/09/01 00:57:34;;;;;;;8.88;7.88;;;14.40;99.90;;;;;;2097285;28;20043;-68
2022/09/01 00:58:37;;;;;;;9.25;7.60;;;14.40;99.90;;;;;;2105126;28;20036;-69
2022/09/01 00:59:48;;;;;;;8.32;7.18;;;14.30;99.90;;;;;;2113578;28;20402;-69
2022/09/01 01:00:51;;;;;;;9.20;7.45;;;14.30;99.90;;;;;;2105133;28;20123;-70
2022/09/01 01:01:52;;;;;;;10.55;8.52;;;14.30;99.90;;;;;;2105544;28;20446;-69
2022/09/01 01:02:54;;;;;;;10.02;8.30;;;14.30;99.90;;;;;;2114284;28;20031;-69
2022/09/01 01:03:56;;;;;;;9.13;8.18;;;14.30;99.90;;;;;;2114424;28;20045;-69
2022/09/01 01:04:58;;;;;;;9.05;8.00;;;14.30;99.90;;;;;;2113432;28;20032;-69
2022/09/01 01:06:03;;;;;;;9.80;7.97;;;14.30;99.90;;;;;;2105391;28;20066;-69
2022/09/01 01:07:05;;;;;;;8.80;7.90;;;14.30;99.90;;;;;;2113678;28;20031;-69
2022/09/01 01:08:08;;;;;;;8.60;7.70;;;14.30;99.90;;;;;;2105615;28;20032;-69
2022/09/01 01:09:09;;;;;;;9.88;7.95;;;14.30;99.90;;;;;;2113857;28;20044;-69
2022/09/01 01:10:13;;;;;;;8.57;7.68;;;14.30;99.90;;;;;;2113953;28;20051;-70
2022/09/01 01:11:18;;;;;;;11.50;8.13;;;14.20;99.90;;;;;;2105567;28;20039;-70
2022/09/01 01:12:19;;;;;;;11.55;8.13;;;14.20;99.90;;;;;;2113472;28;20023;-69
2022/09/01 01:13:20;;;;;;;9.60;8.07;;;14.20;99.90;;;;;;2113434;28;20024;-69
2022/09/01 01:14:22;;;;;;;10.38;8.10;;;14.20;99.90;;;;;;2113556;28;20108;-69
2022/09/01 01:15:23;;;;;;;8.68;7.80;;;14.20;99.90;;;;;;2105166;28;20072;-69
2022/09/01 01:16:25;;;;;;;8.70;7.70;;;14.20;99.90;;;;;;2105198;28;20193;-69
2022/09/01 01:17:26;;;;;;;9.45;7.68;;;14.20;99.90;;;;;;2113615;28;20019;-68
2022/09/01 01:18:27;;;;;;;8.50;7.70;;;14.20;99.90;;;;;;2113691;28;20031;-70
2022/09/01 01:24:09;;;;;;;10.48;7.88;;;14.10;99.90;;;;;;2109312;28;20036;-69
2022/09/01 01:25:11;;;;;;;8.63;7.72;;;14.10;99.90;;;;;;2113600;28;20028;-68
2022/09/01 01:26:12;;;;;;;8.52;7.45;;;14.10;99.90;;;;;;2113521;28;20418;-69
2022/09/01 01:27:18;;;;;;;9.48;8.00;;;14.10;99.90;;;;;;2105330;28;20024;-69
2022/09/01 01:28:25;;;;;;;9.35;7.65;;;14.10;99.90;;;;;;2113452;28;20019;-70
2022/09/01 01:29:32;;;;;;;8.50;7.60;;;14.00;99.90;;;;;;2113732;28;20024;-68
2022/09/01 01:30:35;;;;;;;10.52;7.82;;;14.10;99.90;;;;;;2113533;28;20051;-69
2022/09/01 01:31:36;;;;;;;10.30;7.72;;;14.00;99.90;;;;;;2113183;28;20656;-69
2022/09/01 01:32:41;;;;;;;10.10;7.70;;;14.10;99.90;;;;;;2104412;28;20032;-69
2022/09/01 01:33:45;;;;;;;7.93;7.13;;;14.10;99.90;;;;;;2105425;28;20043;-70
2022/09/01 01:34:47;;;;;;;9.90;7.55;;;14.00;99.90;;;;;;2104982;28;20028;-69
2022/09/01 01:35:50;;;;;;;9.80;7.88;;;14.10;99.90;;;;;;2096622;28;20040;-70
2022/09/01 01:36:51;;;;;;;8.23;7.43;;;14.00;99.90;;;;;;2113479;28;20023;-69
2022/09/01 01:37:53;;;;;;;8.93;7.85;;;14.00;99.90;;;;;;2113267;28;20050;-70
2022/09/01 01:38:58;;;;;;;10.23;7.57;;;14.00;99.90;;;;;;2113352;28;20267;-69
2022/09/01 01:39:59;;;;;;;8.75;7.63;;;14.10;99.90;;;;;;2113324;28;20020;-69
2022/09/01 01:41:00;;;;;;;9.27;8.05;;;14.10;99.90;;;;;;2104976;28;20850;-70
2022/09/01 01:42:01;;;;;;;10.95;7.63;;;14.10;99.90;;;;;;2104737;28;20058;-69
2022/09/01 01:43:02;;;;;;;8.75;7.85;;;14.00;99.90;;;;;;2105221;28;20033;-69
2022/09/01 01:44:04;;;;;;;8.70;7.78;;;14.10;99.90;;;;;;2105018;28;20032;-70
2022/09/01 01:45:06;;;;;;;8.48;7.57;;;14.00;99.90;;;;;;2113069;28;20027;-69
2022/09/01 01:46:09;;;;;;;9.15;7.82;;;14.00;99.90;;;;;;2113273;28;20640;-71
2022/09/01 01:47:12;;;;;;;9.57;7.72;;;14.10;99.90;;;;;;2104808;28;20027;-69
2022/09/01 01:48:14;;;;;;;8.35;7.50;;;14.00;99.90;;;;;;2105224;28;20045;-69
2022/09/01 01:49:18;;;;;;;8.10;7.28;;;14.00;99.90;;;;;;2113570;28;20132;-69
2022/09/01 01:50:26;;;;;;;8.98;7.32;;;14.00;99.90;;;;;;2105478;28;20031;-69
2022/09/01 01:51:30;;;;;;;9.05;7.13;;;14.00;99.90;;;;;;2113415;28;20035;-69
2022/09/01 01:52:33;;;;;;;9.68;7.13;;;14.00;99.90;;;;;;2113096;28;20079;-69
2022/09/01 01:53:34;;;;;;;8.93;7.53;;;14.00;99.90;;;;;;2113484;28;20027;-69
2022/09/01 01:54:36;;;;;;;8.98;7.03;;;14.00;99.90;;;;;;2113350;28;20070;-70
2022/09/01 01:55:37;;;;;;;8.65;7.00;;;14.00;99.90;;;;;;2113287;28;20052;-69
2022/09/01 01:56:40;;;;;;;8.13;6.85;;;14.00;99.90;;;;;;2113371;28;20072;-69
2022/09/01 01:57:47;;;;;;;9.60;7.20;;;14.00;99.90;;;;;;2105095;28;20107;-69
2022/09/01 01:58:52;;;;;;;8.43;6.68;;;14.00;99.90;;;;;;2113359;28;20027;-69
2022/09/01 01:59:56;;;;;;;7.47;6.28;;;14.00;99.90;;;;;;2105850;28;20028;-69
2022/09/01 02:00:57;;;;;;;10.18;6.72;;;14.00;99.90;;;;;;2113546;28;20589;-69
2022/09/01 02:02:02;;;;;;;8.40;6.57;;;14.00;99.90;;;;;;2112908;28;20547;-69
2022/09/01 02:03:04;;;;;;;7.45;6.70;;;14.00;99.90;;;;;;2113498;28;20036;-69
2022/09/01 02:04:04;;;;;;;7.88;6.10;;;14.00;99.90;;;;;;2113324;28;20031;-70
2022/09/01 02:05:11;;;;;;;7.32;6.60;;;14.00;99.90;;;;;;2113352;28;20119;-70
2022/09/01 02:06:12;;;;;;;9.27;6.30;;;14.00;99.90;;;;;;2104838;28;20055;-69
2022/09/01 02:07:15;;;;;;;7.10;6.40;;;14.00;99.90;;;;;;2096590;28;20020;-69
2022/09/01 02:08:19;;;;;;;7.30;6.30;;;14.00;99.90;;;;;;2104916;28;20059;-70
2022/09/01 02:09:22;;;;;;;7.20;6.28;;;13.90;99.90;;;;;;2105072;28;20031;-69
2022/09/01 02:10:24;;;;;;;9.38;6.65;;;14.00;99.90;;;;;;2104849;28;20047;-69
2022/09/01 02:11:25;;;;;;;8.45;6.38;;;14.00;99.90;;;;;;2113342;28;20043;-71
2022/09/01 02:12:27;;;;;;;7.18;6.30;;;13.90;99.90;;;;;;2112508;28;20015;-69
2022/09/01 02:13:31;;;;;;;7.50;6.70;;;13.90;99.90;;;;;;2112856;28;20027;-69
2022/09/01 02:14:32;;;;;;;7.93;6.43;;;13.90;99.90;;;;;;2113314;28;20505;-69
2022/09/01 02:15:41;;;;;;;8.43;6.40;;;13.90;99.90;;;;;;2113615;28;20032;-69
2022/09/01 02:16:42;;;;;;;8.23;6.70;;;13.90;99.90;;;;;;2114004;28;20016;-69
2022/09/01 02:17:45;;;;;;;8.02;6.10;;;13.90;99.90;;;;;;2113333;28;20055;-68
2022/09/01 02:18:46;;;;;;;7.22;6.60;;;13.90;99.90;;;;;;2105418;28;20020;-70
2022/09/01 02:19:48;;;;;;;7.45;6.35;;;13.90;99.90;;;;;;2113326;28;20035;-69
2022/09/01 02:20:49;;;;;;;7.20;6.50;;;13.90;99.90;;;;;;2105000;28;20074;-70
2022/09/01 02:21:54;;;;;;;6.97;6.15;;;13.90;99.90;;;;;;2113079;28;20065;-70
2022/09/01 02:22:55;;;;;;;7.10;6.40;;;13.90;99.90;;;;;;2114200;28;20027;-69
2022/09/01 02:23:59;;;;;;;7.75;6.95;;;13.90;99.90;;;;;;2113527;28;20589;-72
2022/09/01 02:25:00;;;;;;;7.10;6.40;;;13.90;99.90;;;;;;2105327;28;20035;-69
2022/09/01 02:26:01;;;;;;;7.18;6.47;;;13.80;99.90;;;;;;2113453;28;20043;-70
2022/09/01 02:27:04;;;;;;;9.60;7.00;;;13.80;99.90;;;;;;2113403;28;20028;-69
2022/09/01 02:28:08;;;;;;;9.25;6.97;;;13.80;99.90;;;;;;2104926;28;20494;-69
2022/09/01 02:29:17;;;;;;;8.48;7.15;;;13.80;99.90;;;;;;2113389;28;20030;-69
2022/09/01 02:30:19;;;;;;;11.95;7.25;;;13.80;99.90;;;;;;2113389;28;20030;-70
2022/09/01 02:31:19;;;;;;;9.57;7.20;;;13.80;99.90;;;;;;2113829;28;20024;-70
2022/09/01 02:32:21;;;;;;;8.13;7.32;;;13.80;99.90;;;;;;2112640;28;20027;-70
2022/09/01 02:33:24;;;;;;;9.40;7.57;;;13.80;99.90;;;;;;2104523;28;20077;-70
2022/09/01 02:34:27;;;;;;;9.63;7.47;;;13.80;99.90;;;;;;2112836;28;20027;-70
2022/09/01 02:35:36;;;;;;;9.05;7.03;;;13.90;99.90;;;;;;2104784;28;20032;-70
2022/09/01 02:36:41;;;;;;;9.70;7.65;;;13.80;99.90;;;;;;2112965;28;20034;-70
2022/09/01 02:37:48;;;;;;;9.35;7.03;;;13.90;99.90;;;;;;2113068;28;20028;-70
2022/09/01 02:38:50;;;;;;;8.23;7.25;;;13.80;99.90;;;;;;2104726;28;20027;-70
2022/09/01 02:39:52;;;;;;;8.05;6.55;;;13.90;99.90;;;;;;2112942;28;20027;-70
2022/09/01 02:40:53;;;;;;;7.78;6.97;;;13.90;99.90;;;;;;2112985;28;20028;-70
2022/09/01 02:41:54;;;;;;;8.43;7.18;;;13.90;99.90;;;;;;2104242;28;20067;-70
2022/09/01 02:43:00;;;;;;;8.25;7.03;;;13.90;99.90;;;;;;2105121;28;20028;-70
2022/09/01 02:44:02;;;;;;;8.32;7.03;;;13.90;99.90;;;;;;2112853;28;20023;-70
2022/09/01 02:45:14;;;;;;;8.20;6.72;;;13.90;99.90;;;;;;2104415;28;20508;-70
2022/09/01 02:46:15;;;;;;;8.13;6.93;;;13.90;99.90;;;;;;2105868;28;20359;-70
2022/09/01 02:47:16;;;;;;;10.27;6.97;;;14.00;99.90;;;;;;2112861;28;20118;-70
2022/09/01 02:48:17;;;;;;;7.70;6.50;;;14.00;99.90;;;;;;2104185;28;20020;-70
2022/09/01 02:49:27;;;;;;;7.68;6.85;;;14.00;99.90;;;;;;2112851;28;20023;-70
2022/09/01 02:50:28;;;;;;;7.30;6.55;;;14.00;99.90;;;;;;2105777;28;20811;-70
2022/09/01 02:51:28;;;;;;;9.75;6.70;;;14.00;99.90;;;;;;2113157;28;20049;-70
2022/09/01 02:52:36;;;;;;;8.13;7.07;;;14.00;99.90;;;;;;2113155;28;20020;-70
2022/09/01 02:53:38;;;;;;;7.70;6.78;;;14.00;99.90;;;;;;2112880;28;20036;-72
2022/09/01 02:54:40;;;;;;;8.90;6.63;;;14.00;99.90;;;;;;2104639;28;20047;-70
2022/09/01 02:55:42;;;;;;;8.55;6.72;;;14.00;99.90;;;;;;2104626;28;20110;-70
2022/09/01 02:56:46;;;;;;;9.20;6.80;;;14.00;99.90;;;;;;2104465;28;20056;-70
2022/09/01 02:57:49;;;;;;;9.07;7.00;;;14.00;99.90;;;;;;2112742;28;20082;-70
2022/09/01 02:58:50;;;;;;;8.77;6.82;;;14.00;99.90;;;;;;2104698;28;20553;-70
2022/09/01 02:59:51;;;;;;;7.35;6.65;;;14.00;99.90;;;;;;2112982;28;20144;-70
2022/09/01 03:00:54;;;;;;;7.95;6.55;;;14.00;99.90;;;;;;2113188;28;20543;-70
2022/09/01 03:01:56;;;;;;;8.57;6.88;;;14.00;99.90;;;;;;2112501;28;20667;-71
2022/09/01 03:02:58;;;;;;;7.65;6.60;;;14.00;99.90;;;;;;2096162;28;20066;-70
2022/09/01 03:04:04;;;;;;;8.15;6.82;;;14.00;99.90;;;;;;2104881;28;20043;-70
2022/09/01 03:05:06;;;;;;;7.85;7.05;;;14.00;99.90;;;;;;2112691;28;20187;-70
2022/09/01 03:06:08;;;;;;;7.32;6.55;;;14.00;99.90;;;;;;2104196;28;20058;-69
2022/09/01 03:07:09;;;;;;;8.18;6.68;;;14.00;99.90;;;;;;2104586;28;20028;-70
2022/09/01 03:08:14;;;;;;;9.70;7.28;;;14.00;99.90;;;;;;2095815;28;20116;-69
2022/09/01 03:09:17;;;;;;;9.02;7.40;;;14.00;99.90;;;;;;2097147;28;20029;-70
2022/09/01 03:10:20;;;;;;;8.45;7.10;;;14.00;99.90;;;;;;2104901;28;20031;-69
2022/09/01 03:11:23;;;;;;;7.63;6.82;;;13.90;99.90;;;;;;2104786;28;20028;-70
2022/09/01 03:12:24;;;;;;;8.65;7.10;;;13.90;99.90;;;;;;2104608;28;20107;-70
2022/09/01 03:13:27;;;;;;;8.05;7.25;;;13.90;99.90;;;;;;2104586;28;20024;-70
2022/09/01 03:14:28;;;;;;;9.55;7.30;;;13.90;99.90;;;;;;2104919;28;20489;-70
2022/09/01 03:15:29;;;;;;;8.07;7.28;;;13.90;99.90;;;;;;2112605;28;20027;-70
2022/09/01 03:16:30;;;;;;;8.68;7.15;;;13.80;99.90;;;;;;2112717;28;20114;-70
2022/09/01 03:17:31;;;;;;;9.32;7.07;;;13.80;99.90;;;;;;2112985;28;20089;-69
2022/09/01 03:18:33;;;;;;;7.65;6.82;;;13.80;99.90;;;;;;2112782;28;20073;-69
2022/09/01 03:19:39;;;;;;;7.53;6.80;;;13.80;99.90;;;;;;2113063;28;20034;-69
2022/09/01 03:20:43;;;;;;;8.75;6.60;;;13.80;99.90;;;;;;2112745;28;20402;-69
2022/09/01 03:21:47;;;;;;;7.47;6.00;;;13.70;99.90;;;;;;2112647;28;20111;-69
2022/09/01 03:22:55;;;;;;;7.20;6.53;;;13.70;99.90;;;;;;2112745;28;20028;-69
2022/09/01 03:23:57;;;;;;;7.38;6.35;;;13.70;99.90;;;;;;2104883;28;20094;-69
2022/09/01 03:24:58;;;;;;;6.70;6.10;;;13.70;99.90;;;;;;2103601;28;20028;-69
2022/09/01 03:26:00;;;;;;;6.93;6.07;;;13.70;99.90;;;;;;2103854;28;20023;-69
2022/09/01 03:27:02;;;;;;;6.90;5.78;;;13.70;99.90;;;;;;2112756;28;20123;-70
2022/09/01 03:28:04;;;;;;;7.35;5.70;;;13.70;99.90;;;;;;2104063;28;20031;-69
2022/09/01 03:29:05;;;;;;;8.20;6.10;;;13.70;99.90;;;;;;2112429;28;20031;-69
2022/09/01 03:30:07;;;;;;;7.30;6.20;;;13.60;99.90;;;;;;2112736;28;20034;-70
2022/09/01 03:31:08;;;;;;;7.38;5.80;;;13.70;99.90;;;;;;2112553;28;20016;-70
2022/09/01 03:32:09;;;;;;;6.82;5.95;;;13.70;99.90;;;;;;2103733;28;20157;-69
2022/09/01 03:33:10;;;;;;;6.25;5.60;;;13.70;99.90;;;;;;2112628;28;20764;-70
2022/09/01 03:34:23;;;;;;;6.45;5.85;;;13.70;99.90;;;;;;2113332;28;20551;-69
2022/09/01 03:35:27;;;;;;;6.65;6.03;;;13.70;99.90;;;;;;2107424;28;20073;-70
2022/09/01 03:36:31;;;;;;;8.52;6.50;;;13.60;99.90;;;;;;2113383;28;20019;-70
2022/09/01 03:37:32;;;;;;;9.95;6.32;;;13.60;99.90;;;;;;2112631;28;20076;-69
2022/09/01 03:38:34;;;;;;;8.25;6.30;;;13.60;99.90;;;;;;2113328;28;20127;-70
2022/09/01 03:39:37;;;;;;;6.93;5.68;;;13.60;99.90;;;;;;2113509;28;20024;-70
2022/09/01 03:40:38;;;;;;;6.63;5.70;;;13.60;99.90;;;;;;2113106;28;20035;-71
2022/09/01 03:41:40;;;;;;;6.30;5.70;;;13.60;99.90;;;;;;2112983;28;20031;-70
2022/09/01 03:42:42;;;;;;;7.97;6.22;;;13.60;99.90;;;;;;2112599;28;20028;-70
2022/09/01 03:43:45;;;;;;;6.45;5.85;;;13.60;99.90;;;;;;2105058;28;20039;-70
2022/09/01 03:44:48;;;;;;;6.28;5.68;;;13.60;99.90;;;;;;2113167;28;20154;-71
2022/09/01 03:45:49;;;;;;;8.65;6.10;;;13.60;99.90;;;;;;2105048;28;20388;-70
2022/09/01 03:46:50;;;;;;;7.07;6.15;;;13.60;99.90;;;;;;2104151;28;20083;-70
2022/09/01 03:48:07;;;;;;;6.50;5.90;;;13.60;99.90;;;;;;2112968;28;20031;-69
2022/09/01 03:49:13;;;;;;;6.85;5.93;;;13.60;99.90;;;;;;2104502;28;20480;-69
2022/09/01 03:50:19;;;;;;;6.93;6.20;;;13.60;99.90;;;;;;2105634;28;20390;-70
2022/09/01 03:51:21;;;;;;;6.78;6.00;;;13.50;99.90;;;;;;2113412;28;20016;-71
2022/09/01 03:52:28;;;;;;;6.70;6.00;;;13.60;99.90;;;;;;2112433;28;20043;-69
2022/09/01 03:53:36;;;;;;;7.65;6.22;;;13.60;99.90;;;;;;2113462;28;20024;-69
2022/09/01 03:54:37;;;;;;;7.00;6.22;;;13.60;99.90;;;;;;2113168;28;20097;-69
2022/09/01 03:55:39;;;;;;;8.18;6.28;;;13.60;99.90;;;;;;2113492;28;20045;-69
2022/09/01 03:56:40;;;;;;;6.97;5.75;;;13.60;99.90;;;;;;2113199;28;20027;-69
2022/09/01 03:57:42;;;;;;;8.65;5.90;;;13.60;99.90;;;;;;2113341;28;20020;-69
2022/09/01 03:58:45;;;;;;;6.25;5.65;;;13.60;99.90;;;;;;2113683;28;20030;-69
2022/09/01 03:59:54;;;;;;;6.93;5.97;;;13.60;99.90;;;;;;2113531;28;20028;-69
2022/09/01 04:00:59;;;;;;;7.78;5.80;;;13.60;99.90;;;;;;2113594;28;20020;-70
2022/09/01 04:02:03;;;;;;;7.35;5.90;;;13.60;99.90;;;;;;2113633;28;20043;-70
2022/09/01 04:03:06;;;;;;;6.68;6.05;;;13.60;99.90;;;;;;2105611;28;20073;-70
2022/09/01 04:04:07;;;;;;;6.25;5.65;;;13.60;99.90;;;;;;2113946;28;20568;-70
2022/09/01 04:05:08;;;;;;;6.88;6.18;;;13.60;99.90;;;;;;2113703;28;20024;-70
2022/09/01 04:06:09;;;;;;;7.30;6.28;;;13.70;99.90;;;;;;2105149;28;20056;-70
2022/09/01 04:07:10;;;;;;;6.97;5.85;;;13.70;99.90;;;;;;2113533;28;20106;-70
2022/09/01 04:08:12;;;;;;;7.63;6.30;;;13.70;99.90;;;;;;2105224;28;20568;-70
2022/09/01 04:09:14;;;;;;;10.07;6.47;;;13.80;99.90;;;;;;2113266;28;20027;-68
2022/09/01 04:10:21;;;;;;;9.13;6.57;;;13.80;99.90;;;;;;2113795;28;20031;-69
2022/09/01 04:11:25;;;;;;;9.57;6.18;;;13.80;99.90;;;;;;2113715;28;20059;-68
2022/09/01 04:12:26;;;;;;;8.05;6.53;;;13.80;99.90;;;;;;2112731;28;20481;-69
2022/09/01 04:13:35;;;;;;;8.02;6.85;;;13.80;99.90;;;;;;2112100;28;20027;-69
2022/09/01 04:14:35;;;;;;;9.63;6.20;;;13.80;99.90;;;;;;2105210;28;20023;-69
2022/09/01 04:15:39;;;;;;;10.20;6.75;;;13.80;99.90;;;;;;2112784;28;20131;-69
2022/09/01 04:18:09;;;;;;;9.45;7.22;;;13.90;99.90;;;;;;2112435;28;20032;-69
2022/09/01 04:19:18;;;;;;;11.27;7.35;;;13.90;99.90;;;;;;2104758;28;20105;-69
2022/09/01 04:20:22;;;;;;;9.38;7.43;;;13.90;99.90;;;;;;2105103;28;20039;-69
2022/09/01 04:21:23;;;;;;;7.65;6.63;;;13.90;99.90;;;;;;2104474;28;20107;-69
2022/09/01 04:22:28;;;;;;;7.65;6.85;;;13.90;99.90;;;;;;2112208;28;20031;-71
2022/09/01 04:23:35;;;;;;;7.72;6.65;;;13.90;99.90;;;;;;2105525;28;20032;-70
2022/09/01 04:24:44;;;;;;;8.93;6.68;;;13.90;99.90;;;;;;2105809;28;20085;-70
2022/09/01 04:25:45;;;;;;;8.18;6.80;;;13.90;99.90;;;;;;2105761;28;20714;-70
2022/09/01 04:26:48;;;;;;;9.88;7.55;;;13.90;99.90;;;;;;2113185;28;20493;-70
2022/09/01 04:27:54;;;;;;;9.60;8.40;;;13.90;99.90;;;;;;2113551;28;20024;-70
2022/09/01 04:28:56;;;;;;;9.75;8.40;;;13.90;99.90;;;;;;2105614;28;20085;-71
2022/09/01 04:30:00;;;;;;;9.73;7.30;;;13.90;99.90;;;;;;2104517;28;20082;-70
2022/09/01 04:31:09;;;;;;;9.63;7.15;;;13.90;99.90;;;;;;2096969;28;20104;-70
2022/09/01 04:32:11;;;;;;;7.97;7.18;;;13.90;99.90;;;;;;2096975;28;20478;-69
2022/09/01 04:33:16;;;;;;;7.75;7.05;;;13.90;99.90;;;;;;2105218;28;20017;-70
2022/09/01 04:34:16;;;;;;;7.53;6.75;;;13.90;99.90;;;;;;2104357;28;20528;-70
2022/09/01 04:35:17;;;;;;;7.72;6.80;;;13.90;99.90;;;;;;2103782;28;20036;-69
2022/09/01 04:36:26;;;;;;;8.10;6.68;;;13.90;99.90;;;;;;2112366;28;20028;-69
2022/09/01 04:37:27;;;;;;;7.75;6.60;;;13.90;99.90;;;;;;2114365;28;20143;-69
2022/09/01 04:38:34;;;;;;;8.65;6.80;;;13.90;99.90;;;;;;2104935;28;20585;-69
2022/09/01 04:39:37;;;;;;;8.80;6.70;;;13.90;99.90;;;;;;2105714;28;20193;-69
2022/09/01 04:40:39;;;;;;;10.02;7.03;;;13.90;99.90;;;;;;2113922;28;20042;-69
2022/09/01 04:41:49;;;;;;;8.45;6.70;;;13.90;99.90;;;;;;2113410;28;20031;-73
2022/09/01 04:42:50;;;;;;;7.90;6.78;;;13.90;99.90;;;;;;2113612;28;20020;-69
2022/09/01 04:43:55;;;;;;;9.30;6.80;;;13.90;99.90;;;;;;2113242;28;20031;-71
2022/09/01 04:44:56;;;;;;;8.25;6.68;;;13.90;99.90;;;;;;2105623;28;20115;-71
2022/09/01 04:45:57;;;;;;;7.72;6.93;;;13.90;99.90;;;;;;2105126;28;20030;-70
2022/09/01 04:46:59;;;;;;;8.95;6.60;;;13.90;99.90;;;;;;2113411;28;20033;-70
2022/09/01 04:47:59;;;;;;;8.63;6.32;;;13.90;99.90;;;;;;2113631;28;20111;-70
2022/09/01 04:49:08;;;;;;;8.77;6.88;;;14.00;99.90;;;;;;2104919;28;20032;-70
2022/09/01 04:50:16;;;;;;;9.65;6.65;;;14.00;99.90;;;;;;2106177;28;20031;-70
2022/09/01 04:51:40;;;;;;;9.48;6.68;;;14.00;99.90;;;;;;2113531;28;20036;-70
2022/09/01 04:52:46;;;;;;;8.27;6.40;;;14.00;99.90;;;;;;2104678;28;20020;-70
2022/09/01 04:54:01;;;;;;;10.38;6.65;;;14.00;99.90;;;;;;2101684;28;20394;-70
2022/09/01 04:55:03;;;;;;;8.55;7.18;;;14.00;99.90;;;;;;2105385;28;20089;-69
2022/09/01 04:56:08;;;;;;;7.35;6.65;;;13.90;99.90;;;;;;2113429;28;20123;-70
2022/09/01 04:57:12;;;;;;;8.57;6.80;;;13.90;99.90;;;;;;2105901;28;20028;-70
2022/09/01 04:58:16;;;;;;;9.90;6.75;;;13.90;99.90;;;;;;2096686;28;20098;-70
2022/09/01 04:59:20;;;;;;;7.95;6.80;;;13.90;99.90;;;;;;2105487;28;20105;-70
2022/09/01 05:00:30;;;;;;;7.68;6.38;;;13.90;99.90;;;;;;2113654;28;20817;-70
2022/09/01 05:01:42;;;;;;;7.82;6.65;;;13.90;99.90;;;;;;2113659;28;20058;-70
2022/09/01 05:02:44;;;;;;;7.85;6.93;;;13.90;99.90;;;;;;2106169;28;20039;-70
2022/09/01 05:03:50;;;;;;;8.27;6.68;;;13.90;99.90;;;;;;2105156;28;20028;-70
2022/09/01 05:05:11;;;;;;;8.55;6.45;;;13.90;99.90;;;;;;2104696;28;20028;-69
2022/09/01 05:06:19;;;;;;;7.55;6.78;;;13.90;99.90;;;;;;2099949;28;20534;-69
2022/09/01 05:07:28;;;;;;;7.85;6.75;;;14.00;99.90;;;;;;2106928;28;20035;-70
2022/09/01 05:08:30;;;;;;;8.75;6.88;;;14.00;99.90;;;;;;2105110;28;20099;-70
2022/09/01 05:09:34;;;;;;;8.98;6.88;;;14.00;99.90;;;;;;2113498;28;20660;-70
2022/09/01 05:10:56;;;;;;;7.93;6.63;;;14.10;99.90;;;;;;2113653;28;20030;-71
2022/09/01 05:12:26;;;;;;;7.88;6.47;;;14.10;99.90;;;;;;2109527;28;20103;-71
2022/09/01 05:13:31;;;;;;;7.60;6.38;;;14.10;99.90;;;;;;2113786;28;20031;-72
2022/09/01 05:14:32;;;;;;;7.57;6.60;;;14.20;99.90;;;;;;2105990;28;20028;-70
2022/09/01 05:15:34;;;;;;;7.28;6.50;;;14.20;99.90;;;;;;2113573;28;20024;-71
2022/09/01 05:16:36;;;;;;;7.80;7.10;;;14.20;99.90;;;;;;2104844;28;20087;-69
2022/09/01 05:17:37;;;;;;;9.45;6.80;;;14.20;99.90;;;;;;2104918;28;20509;-69
2022/09/01 05:18:39;;;;;;;7.53;6.57;;;14.20;99.90;;;;;;2113134;28;20059;-69
2022/09/01 05:19:43;;;;;;;7.03;6.32;;;14.20;99.90;;;;;;2113315;28;20129;-69
2022/09/01 05:20:46;;;;;;;7.60;6.55;;;14.20;99.90;;;;;;2113252;28;20035;-69
2022/09/01 05:21:48;;;;;;;8.82;6.30;;;14.20;99.90;;;;;;2113131;28;20023;-70
2022/09/01 05:22:49;;;;;;;8.18;6.68;;;14.30;99.90;;;;;;2112905;28;20053;-69
2022/09/01 05:23:51;;;;;;;6.97;6.28;;;14.30;99.90;;;;;;2104854;28;20514;-69
2022/09/01 05:24:52;;;;;;;8.65;6.47;;;14.30;99.90;;;;;;2104528;28;20070;-70
2022/09/01 05:25:53;;;;;;;7.00;6.30;;;14.30;99.90;;;;;;2104540;28;20028;-70
2022/09/01 05:26:55;;;;;;;7.28;6.53;;;14.30;99.90;;;;;;2113227;28;20027;-70
2022/09/01 05:27:56;;;;;;;7.15;6.45;;;14.30;99.90;;;;;;2113446;28;20127;-68
2022/09/01 05:29:01;;;;;;;7.07;6.10;;;14.30;99.90;;;;;;2096694;28;20027;-69
2022/09/01 05:30:07;;;;;;;9.75;6.68;;;14.30;99.90;;;;;;2097631;28;20024;-69
2022/09/01 05:31:08;;;;;;;8.05;6.85;;;14.30;99.90;;;;;;2105481;28;20032;-70
2022/09/01 05:32:11;;;;;;;9.27;6.72;;;14.30;99.90;;;;;;2112837;28;20024;-69
2022/09/01 05:33:15;;;;;;;9.65;7.47;;;14.30;99.90;;;;;;2104856;28;20028;-69
2022/09/01 05:34:25;;;;;;;9.35;6.75;;;14.30;99.90;;;;;;2105306;28;20082;-69
2022/09/01 05:35:26;;;;;;;9.93;7.18;;;14.30;99.90;;;;;;2105910;28;20036;-69